Time;durP1;ratioP1;P1;durP2;ratioP2;P2;SDS_P1;SDS_P2;PMS_P1;PMS_P2;Temp;Humidity;BMP_temperature;BMP_pressure;BME280_temperature;BME280_humidity;BME280_pressure;Samples;Min_cycle;Max_cycle;Signal;HPM_P1;HPM_P2
2024/01/14 00:00:03;;;;;;;;;2.00;2.00;;;;;21.65;48.04;99258.90;112402;1245;20986;-36
2024/01/14 00:02:31;;;;;;;;;2.33;2.33;;;;;21.65;48.12;99256.11;112192;1260;18896;-37
2024/01/14 00:04:59;;;;;;;;;3.00;3.00;;;;;21.63;47.83;99254.81;112333;1260;18644;-36
2024/01/14 00:07:26;;;;;;;;;3.00;3.00;;;;;21.65;48.08;99251.27;112239;1260;20667;-36
2024/01/14 00:09:55;;;;;;;;;3.00;2.00;;;;;21.65;47.90;99252.67;112328;1260;18139;-35
2024/01/14 00:12:22;;;;;;;;;3.00;3.00;;;;;21.62;47.80;99243.08;112207;1244;18631;-36
2024/01/14 00:14:50;;;;;;;;;4.00;3.00;;;;;21.60;47.64;99238.10;111926;1260;380781;-36
2024/01/14 00:17:17;;;;;;;;;3.00;3.00;;;;;21.58;47.80;99240.29;112178;1244;19583;-35
2024/01/14 00:19:45;;;;;;;;;3.00;3.00;;;;;21.59;48.02;99234.59;112229;1260;18673;-39
2024/01/14 00:22:12;;;;;;;;;3.00;3.00;;;;;21.60;47.75;99235.11;112151;1260;20922;-35
2024/01/14 00:24:39;;;;;;;;;3.00;3.00;;;;;21.61;47.89;99228.77;112285;1244;19586;-37
2024/01/14 00:27:07;;;;;;;;;3.00;3.00;;;;;21.62;48.02;99230.92;112185;1244;18640;-37
2024/01/14 00:29:36;;;;;;;;;3.00;3.00;;;;;21.65;47.96;99223.86;112276;1244;19386;-37
2024/01/14 00:32:03;;;;;;;;;3.00;3.00;;;;;21.63;47.92;99222.89;112174;1244;19528;-35
2024/01/14 00:34:30;;;;;;;;;4.00;3.00;;;;;21.58;47.92;99216.83;112227;1244;19943;-37
2024/01/14 00:36:58;;;;;;;;;3.00;3.00;;;;;21.62;47.77;99216.95;112209;1260;21068;-37
2024/01/14 00:39:25;;;;;;;;;3.00;3.00;;;;;21.64;47.87;99211.13;112155;1260;19544;-36
2024/01/14 00:41:53;;;;;;;;;1.00;1.00;;;;;21.56;47.86;99209.16;112236;1244;20445;-37
2024/01/14 00:44:20;;;;;;;;;4.00;3.50;;;;;21.58;47.80;99200.92;112180;1248;20790;-36
2024/01/14 00:46:48;;;;;;;;;3.00;3.00;;;;;21.60;47.44;99201.16;112195;1252;19491;-35
2024/01/14 00:49:15;;;;;;;;;3.00;3.00;;;;;21.61;47.75;99198.83;112221;1244;18631;-37
2024/01/14 00:51:42;;;;;;;;;3.00;3.00;;;;;21.56;47.61;99200.60;112182;1244;22171;-35
2024/01/14 00:54:10;;;;;;;;;3.00;3.00;;;;;21.61;47.74;99200.98;112210;1260;19723;-37
2024/01/14 00:56:37;;;;;;;;;3.00;3.00;;;;;21.62;47.50;99198.07;112179;1247;20073;-35
2024/01/14 00:59:05;;;;;;;;;3.00;3.00;;;;;21.62;47.58;99193.52;112190;1260;20642;-36
2024/01/14 01:01:32;;;;;;;;;3.00;3.00;;;;;21.59;47.30;99190.33;112168;1260;19462;-36
2024/01/14 01:04:00;;;;;;;;;4.50;3.50;;;;;21.61;47.49;99187.77;112153;1260;19974;-35
2024/01/14 01:06:27;;;;;;;;;3.00;1.00;;;;;21.63;47.42;99184.45;112211;1252;21017;-36
2024/01/14 01:08:55;;;;;;;;;1.00;1.00;;;;;21.65;47.02;99184.40;112186;1260;19510;-36
2024/01/14 01:11:22;;;;;;;;;4.00;1.00;;;;;21.64;47.24;99183.34;112197;1244;19962;-35
2024/01/14 01:13:50;;;;;;;;;1.00;1.00;;;;;21.63;47.34;99179.98;112180;1260;19341;-36
2024/01/14 01:16:17;;;;;;;;;3.00;3.00;;;;;21.61;47.03;99173.45;112223;1247;20714;-37
2024/01/14 01:18:44;;;;;;;;;2.00;2.00;;;;;21.62;47.21;99178.54;112222;1247;20045;-37
2024/01/14 01:21:12;;;;;;;;;1.00;1.00;;;;;21.63;47.12;99175.73;112226;1260;20570;-36
2024/01/14 01:23:39;;;;;;;;;3.00;3.00;;;;;21.62;47.12;99166.62;112253;1245;18593;-38
2024/01/14 01:26:07;;;;;;;;;1.00;1.00;;;;;21.63;47.04;99164.89;112243;1247;20311;-38
2024/01/14 01:28:34;;;;;;;;;3.00;3.00;;;;;21.64;47.19;99158.48;112258;1253;20853;-36
2024/01/14 01:31:02;;;;;;;;;1.00;1.00;;;;;21.63;46.78;99159.92;112261;1260;18584;-36
2024/01/14 01:33:29;;;;;;;;;1.00;1.00;;;;;21.63;46.74;99161.30;112279;1244;20080;-35
2024/01/14 01:35:56;;;;;;;;;1.00;1.00;;;;;21.63;47.01;99157.13;112270;1260;20844;-36
2024/01/14 01:38:24;;;;;;;;;1.00;1.00;;;;;21.63;46.94;99158.23;112302;1244;19625;-36
2024/01/14 01:40:51;;;;;;;;;3.00;3.00;;;;;21.63;46.92;99156.79;112151;1257;20052;-36
2024/01/14 01:43:19;;;;;;;;;1.00;1.00;;;;;21.61;46.78;99156.33;112233;1247;21027;-35
2024/01/14 01:45:46;;;;;;;;;3.00;3.00;;;;;21.52;47.15;99155.77;112188;1244;19539;-37
2024/01/14 01:48:13;;;;;;;;;3.00;3.00;;;;;21.51;46.82;99153.11;112191;1260;18562;-36
2024/01/14 01:50:41;;;;;;;;;1.00;1.00;;;;;21.47;47.13;99144.88;112204;1244;19568;-35
2024/01/14 01:53:09;;;;;;;;;1.00;1.00;;;;;21.44;46.74;99141.44;112153;1260;19525;-35
2024/01/14 01:55:36;;;;;;;;;1.00;1.00;;;;;21.42;46.94;99137.14;112187;1260;20298;-37
2024/01/14 01:58:05;;;;;;;;;1.00;1.00;;;;;21.38;46.88;99132.88;112133;1260;20235;-39
2024/01/14 02:00:34;;;;;;;;;1.00;1.00;;;;;21.38;46.88;99131.95;112174;1260;18175;-37
2024/01/14 02:03:01;;;;;;;;;3.00;3.00;;;;;21.36;46.87;99127.75;112263;1244;20050;-38
2024/01/14 02:05:29;;;;;;;;;1.00;1.00;;;;;21.34;46.88;99128.13;112196;1260;21802;-35
2024/01/14 02:07:56;;;;;;;;;1.00;1.00;;;;;21.34;46.80;99119.95;112231;1247;19591;-38
2024/01/14 02:10:24;;;;;;;;;1.00;1.00;;;;;21.34;47.02;99120.43;112180;1244;20231;-35
2024/01/14 02:12:51;;;;;;;;;1.00;1.00;;;;;21.37;46.68;99126.81;112273;1248;20815;-38
2024/01/14 02:15:19;;;;;;;;;1.00;1.00;;;;;21.36;46.73;99120.45;112151;1260;19560;-35
2024/01/14 02:17:46;;;;;;;;;1.00;1.00;;;;;21.36;46.62;99122.27;112295;1244;18586;-36
2024/01/14 02:20:14;;;;;;;;;1.00;1.00;;;;;21.34;46.52;99120.71;112187;1260;20428;-36
2024/01/14 02:22:41;;;;;;;;;1.00;1.00;;;;;21.34;46.47;99121.33;112298;1260;19616;-36
2024/01/14 02:25:09;;;;;;;;;3.00;1.00;;;;;21.37;46.41;99117.88;112162;1260;18620;-35
2024/01/14 02:27:36;;;;;;;;;3.00;1.00;;;;;21.36;46.56;99115.13;112327;1247;22131;-36
2024/01/14 02:30:04;;;;;;;;;3.00;1.00;;;;;21.31;46.56;99109.68;112158;1245;19557;-35
2024/01/14 02:32:31;;;;;;;;;1.00;1.00;;;;;21.30;46.53;99104.39;112306;1260;20013;-37
2024/01/14 02:34:58;;;;;;;;;1.00;1.00;;;;;21.28;46.50;99104.04;112164;1247;19534;-37
2024/01/14 02:37:26;;;;;;;;;1.00;1.00;;;;;21.28;46.23;99105.64;112249;1248;20250;-35
2024/01/14 02:39:54;;;;;;;;;3.67;1.67;;;;;21.27;46.58;99103.55;112229;1260;18574;-36
2024/01/14 02:42:21;;;;;;;;;1.00;1.00;;;;;21.30;46.33;99101.06;112373;1244;20800;-36
2024/01/14 02:44:48;;;;;;;;;3.00;1.00;;;;;21.28;46.23;99102.75;112220;1260;19462;-36
2024/01/14 02:47:16;;;;;;;;;1.00;1.00;;;;;21.26;46.20;99095.77;112337;1244;18890;-37
2024/01/14 02:49:43;;;;;;;;;1.00;1.00;;;;;21.26;46.40;99090.31;112256;1260;19375;-36
2024/01/14 02:52:11;;;;;;;;;1.00;1.00;;;;;21.26;46.23;99087.27;112244;1244;19676;-35
2024/01/14 02:54:38;;;;;;;;;1.00;1.00;;;;;21.26;46.25;99083.30;112276;1244;19980;-35
2024/01/14 02:57:05;;;;;;;;;1.00;1.00;;;;;21.25;46.26;99080.12;112185;1260;20890;-36
2024/01/14 02:59:33;;;;;;;;;1.00;1.00;;;;;21.26;46.26;99077.46;112272;1260;19632;-36
2024/01/14 03:02:01;;;;;;;;;1.00;1.00;;;;;21.25;46.29;99075.38;112147;1248;19914;-37
2024/01/14 03:04:28;;;;;;;;;1.00;1.00;;;;;21.26;46.00;99071.05;112306;1260;19323;-36
2024/01/14 03:06:56;;;;;;;;;1.00;1.00;;;;;21.25;46.13;99069.32;112243;1260;19537;-37
2024/01/14 03:09:23;;;;;;;;;1.00;1.00;;;;;21.24;46.07;99068.16;112284;1260;18724;-37
2024/01/14 03:11:51;;;;;;;;;1.00;1.00;;;;;21.24;45.89;99064.99;112229;1260;20734;-35
2024/01/14 03:14:18;;;;;;;;;1.00;1.00;;;;;21.23;46.23;99063.17;112297;1260;18165;-36
2024/01/14 03:16:45;;;;;;;;;1.00;1.00;;;;;21.23;45.90;99059.56;112143;1260;18645;-37
2024/01/14 03:19:13;;;;;;;;;1.00;1.00;;;;;21.24;45.91;99060.31;112296;1260;20660;-37
2024/01/14 03:21:40;;;;;;;;;1.00;1.00;;;;;21.24;45.91;99059.23;112154;1260;19587;-37
2024/01/14 03:24:08;;;;;;;;;1.00;1.00;;;;;21.24;45.75;99057.33;112352;1260;18749;-36
2024/01/14 03:26:35;;;;;;;;;3.00;3.00;;;;;21.23;45.86;99052.95;112175;1244;19366;-36
2024/01/14 03:29:02;;;;;;;;;1.00;1.00;;;;;21.23;45.69;99052.08;112368;1247;19647;-36
2024/01/14 03:31:30;;;;;;;;;1.00;1.00;;;;;21.22;45.92;99054.55;112117;1260;20214;-38
2024/01/14 03:33:57;;;;;;;;;3.00;3.00;;;;;21.22;45.72;99052.52;112371;1247;20808;-37
2024/01/14 03:36:25;;;;;;;;;3.00;3.00;;;;;21.22;45.67;99051.98;112172;1244;20875;-35
2024/01/14 03:38:52;;;;;;;;;1.00;1.00;;;;;21.23;45.76;99051.53;112417;1244;19878;-36
2024/01/14 03:41:20;;;;;;;;;1.00;1.00;;;;;21.23;45.62;99046.89;112222;1244;20714;-35
2024/01/14 03:43:47;;;;;;;;;1.00;1.00;;;;;21.22;45.54;99048.65;112295;1260;19533;-36
2024/01/14 03:46:14;;;;;;;;;1.00;1.00;;;;;21.23;45.67;99048.36;112246;1260;18559;-35
2024/01/14 03:48:42;;;;;;;;;2.00;2.00;;;;;21.22;45.63;99045.89;112157;1260;22001;-37
2024/01/14 03:51:09;;;;;;;;;1.00;1.00;;;;;21.22;45.75;99042.11;112250;1244;20809;-37
2024/01/14 03:53:37;;;;;;;;;1.00;1.00;;;;;21.23;45.71;99037.91;112191;1244;19972;-36
2024/01/14 03:56:04;;;;;;;;;1.00;1.00;;;;;21.22;45.69;99035.38;112254;1244;20781;-35
2024/01/14 03:58:32;;;;;;;;;1.00;1.00;;;;;21.22;45.50;99035.20;112219;1253;21219;-36
2024/01/14 04:00:59;;;;;;;;;1.00;1.00;;;;;21.21;45.61;99029.72;112252;1260;21139;-36
2024/01/14 04:03:27;;;;;;;;;1.00;1.00;;;;;21.21;45.54;99029.27;112225;1244;20712;-37
2024/01/14 04:05:54;;;;;;;;;1.00;1.00;;;;;21.21;45.41;99028.47;112272;1245;19551;-36
2024/01/14 04:08:21;;;;;;;;;1.00;1.00;;;;;21.21;45.43;99030.27;112272;1244;19971;-37
2024/01/14 04:10:49;;;;;;;;;3.00;3.00;;;;;21.21;45.49;99029.98;112289;1246;22074;-36
2024/01/14 04:13:17;;;;;;;;;1.67;1.67;;;;;21.21;45.17;99031.41;112242;1260;18691;-36
2024/01/14 04:15:44;;;;;;;;;1.00;1.00;;;;;21.20;45.36;99028.04;112228;1260;20113;-36
2024/01/14 04:18:12;;;;;;;;;1.00;1.00;;;;;21.21;45.44;99022.31;112268;1248;20805;-35
2024/01/14 04:20:39;;;;;;;;;3.00;3.00;;;;;21.21;45.26;99021.38;112247;1260;18906;-36
2024/01/14 04:23:07;;;;;;;;;1.00;1.00;;;;;21.20;45.23;99021.44;112331;1244;20205;-36
2024/01/14 04:25:34;;;;;;;;;1.00;1.00;;;;;21.21;45.33;99020.23;112214;1260;21037;-35
2024/01/14 04:28:01;;;;;;;;;1.00;1.00;;;;;21.20;45.45;99017.70;112246;1245;19947;-36
2024/01/14 04:30:29;;;;;;;;;1.00;1.00;;;;;21.20;45.04;99018.85;112140;1244;21136;-36
2024/01/14 04:32:56;;;;;;;;;1.00;1.00;;;;;21.21;45.27;99024.77;112136;1248;20756;-36
2024/01/14 04:35:24;;;;;;;;;1.00;1.00;;;;;21.20;45.03;99019.00;112197;1260;19570;-39
2024/01/14 04:37:51;;;;;;;;;1.00;1.00;;;;;21.21;45.44;99024.27;112150;1260;18796;-37
2024/01/14 04:40:19;;;;;;;;;1.00;1.00;;;;;21.19;45.27;99021.15;112256;1260;20712;-38
2024/01/14 04:42:46;;;;;;;;;1.00;1.00;;;;;21.18;45.41;99019.16;112191;1244;19586;-36
2024/01/14 04:45:13;;;;;;;;;1.00;1.00;;;;;21.19;45.00;99018.27;112268;1244;20156;-37
2024/01/14 04:47:41;;;;;;;;;1.00;1.00;;;;;21.19;45.39;99016.15;112173;1244;21053;-35
2024/01/14 04:50:08;;;;;;;;;3.00;1.00;;;;;21.19;44.99;99015.99;112265;1244;20819;-35
2024/01/14 04:52:36;;;;;;;;;2.00;2.00;;;;;21.19;45.16;99017.40;112152;1245;20079;-36
2024/01/14 04:55:03;;;;;;;;;2.00;2.00;;;;;21.19;45.07;99018.66;112322;1244;20921;-36
2024/01/14 04:57:30;;;;;;;;;1.00;1.00;;;;;21.18;45.06;99019.48;112143;1260;19060;-35
2024/01/14 04:59:58;;;;;;;;;1.00;1.00;;;;;21.18;45.08;99017.52;112315;1260;20181;-36
2024/01/14 05:02:25;;;;;;;;;1.00;1.00;;;;;21.18;45.00;99019.93;112158;1260;19325;-36
2024/01/14 05:04:53;;;;;;;;;1.00;1.00;;;;;21.18;44.95;99019.16;112347;1260;19737;-36
2024/01/14 05:07:20;;;;;;;;;1.00;1.00;;;;;21.18;45.01;99017.33;112156;1260;21314;-36
2024/01/14 05:09:48;;;;;;;;;1.00;1.00;;;;;21.17;44.96;99012.49;112364;1246;20879;-35
2024/01/14 05:12:15;;;;;;;;;1.00;1.00;;;;;21.18;45.06;99015.73;112190;1260;18164;-35
2024/01/14 05:14:42;;;;;;;;;1.00;1.00;;;;;21.18;44.91;99016.95;112361;1260;18616;-37
2024/01/14 05:17:10;;;;;;;;;3.00;1.00;;;;;21.18;44.91;99017.88;112169;1244;22024;-38
2024/01/14 05:19:38;;;;;;;;;1.00;1.00;;;;;21.17;44.86;99013.97;112356;1260;18208;-35
2024/01/14 05:22:05;;;;;;;;;1.00;1.00;;;;;21.18;44.90;99014.92;112186;1244;18629;-38
2024/01/14 05:24:33;;;;;;;;;1.00;1.00;;;;;21.18;44.92;99013.84;112343;1244;20794;-38
2024/01/14 05:27:00;;;;;;;;;1.00;1.00;;;;;21.18;44.69;99015.80;112185;1260;18154;-35
2024/01/14 05:29:28;;;;;;;;;1.00;1.00;;;;;21.18;44.73;99016.50;112304;1244;21105;-36
2024/01/14 05:31:55;;;;;;;;;1.00;1.00;;;;;21.17;44.68;99014.58;112205;1244;20791;-35
2024/01/14 05:34:22;;;;;;;;;1.00;1.00;;;;;21.16;44.90;99015.46;112148;1244;19550;-35
2024/01/14 05:36:50;;;;;;;;;3.00;1.00;;;;;21.17;44.65;99016.68;112208;1260;19192;-36
2024/01/14 05:39:17;;;;;;;;;1.00;1.00;;;;;21.18;44.53;99013.30;112161;1244;19376;-39
2024/01/14 05:41:45;;;;;;;;;1.00;1.00;;;;;21.18;44.70;99012.36;112252;1246;19850;-39
2024/01/14 05:44:12;;;;;;;;;2.50;2.00;;;;;21.17;44.75;99012.65;112136;1260;20292;-35
2024/01/14 05:46:40;;;;;;;;;1.00;1.00;;;;;21.17;44.54;99009.61;112233;1244;20773;-35
2024/01/14 05:49:07;;;;;;;;;1.00;1.00;;;;;21.17;44.63;99011.23;112192;1245;19565;-37
2024/01/14 05:51:34;;;;;;;;;3.00;3.00;;;;;21.17;44.70;99010.92;112224;1253;20001;-36
2024/01/14 05:54:02;;;;;;;;;1.67;1.67;;;;;21.17;44.46;99010.22;112215;1260;20992;-37
2024/01/14 05:56:30;;;;;;;;;1.00;1.00;;;;;21.17;44.51;99011.64;112194;1245;19605;-35
2024/01/14 05:59:00;;;;;;;;;1.00;1.00;;;;;21.17;44.48;99013.33;112173;1260;18953;-37
2024/01/14 06:01:28;;;;;;;;;1.00;1.00;;;;;21.16;44.44;99006.05;112204;1260;20715;-35
2024/01/14 06:03:56;;;;;;;;;1.00;1.00;;;;;21.17;44.48;99003.97;112253;1254;21194;-37
2024/01/14 06:06:23;;;;;;;;;1.00;1.00;;;;;21.18;44.54;99002.17;112169;1260;18642;-38
2024/01/14 06:08:51;;;;;;;;;1.00;1.00;;;;;21.17;44.58;99002.91;112223;1260;19492;-36
2024/01/14 06:11:18;;;;;;;;;1.00;1.00;;;;;21.18;44.61;99008.45;112148;1260;18215;-35
2024/01/14 06:13:45;;;;;;;;;1.00;1.00;;;;;21.18;44.67;99006.21;112194;1247;20042;-35
2024/01/14 06:16:13;;;;;;;;;1.00;1.00;;;;;21.18;44.62;99006.91;112201;1245;19229;-35
2024/01/14 06:18:40;;;;;;;;;1.00;1.00;;;;;21.18;44.52;99007.52;112176;1247;19554;-38
2024/01/14 06:21:08;;;;;;;;;1.00;1.00;;;;;21.17;44.67;99006.80;112199;1260;19935;-36
2024/01/14 06:23:35;;;;;;;;;3.00;3.00;;;;;21.17;44.69;99008.97;112143;1260;20841;-35
2024/01/14 06:26:03;;;;;;;;;1.00;1.00;;;;;21.17;44.37;99009.60;112195;1260;18845;-37
2024/01/14 06:28:30;;;;;;;;;1.00;1.00;;;;;21.18;44.55;99013.20;112186;1257;20026;-36
2024/01/14 06:30:58;;;;;;;;;1.00;1.00;;;;;21.18;44.52;99012.36;112227;1260;19401;-39
2024/01/14 06:33:25;;;;;;;;;1.00;1.00;;;;;21.17;44.54;99014.13;112156;1257;21204;-36
2024/01/14 06:35:52;;;;;;;;;1.00;1.00;;;;;21.19;44.33;99016.77;112243;1260;18825;-36
2024/01/14 06:38:20;;;;;;;;;1.00;1.00;;;;;21.18;44.40;99020.63;112198;1247;21888;-35
2024/01/14 06:40:47;;;;;;;;;1.00;1.00;;;;;21.18;44.61;99018.27;112275;1247;19987;-38
2024/01/14 06:43:15;;;;;;;;;1.00;1.00;;;;;21.18;44.34;99021.46;112149;1244;19904;-36
2024/01/14 06:45:43;;;;;;;;;1.00;1.00;;;;;21.17;44.60;99025.17;112222;1260;20754;-35
2024/01/14 06:48:10;;;;;;;;;3.00;1.00;;;;;21.17;44.12;99028.73;112158;1260;19561;-36
2024/01/14 06:50:38;;;;;;;;;1.00;1.00;;;;;21.17;44.42;99027.71;112235;1260;18772;-38
2024/01/14 06:53:05;;;;;;;;;1.00;1.00;;;;;21.16;44.54;99029.24;112149;1244;19799;-36
2024/01/14 06:55:32;;;;;;;;;1.00;1.00;;;;;21.16;44.23;99031.03;112273;1247;21021;-35
2024/01/14 06:58:00;;;;;;;;;1.00;1.00;;;;;21.17;44.39;99031.90;112218;1245;20053;-36
2024/01/14 07:00:27;;;;;;;;;1.00;1.00;;;;;21.16;44.35;99038.40;112257;1260;20693;-36
2024/01/14 07:02:55;;;;;;;;;3.00;3.00;;;;;21.17;44.30;99043.98;112187;1244;19666;-36
2024/01/14 07:05:22;;;;;;;;;1.00;1.00;;;;;21.16;44.38;99041.61;112287;1260;20364;-36
2024/01/14 07:07:50;;;;;;;;;1.00;1.00;;;;;21.15;44.25;99045.55;112201;1244;21009;-35
2024/01/14 07:10:17;;;;;;;;;1.00;1.00;;;;;21.16;44.46;99037.57;112340;1244;19547;-38
2024/01/14 07:12:44;;;;;;;;;1.00;1.00;;;;;21.15;44.37;99040.33;112178;1244;20024;-36
2024/01/14 07:15:12;;;;;;;;;1.00;1.00;;;;;21.16;44.29;99037.41;112359;1244;20995;-35
2024/01/14 07:17:39;;;;;;;;;1.00;1.00;;;;;21.16;44.24;99037.91;112172;1244;19586;-36
2024/01/14 07:20:07;;;;;;;;;1.00;1.00;;;;;21.15;44.24;99040.80;112166;1260;19990;-36
2024/01/14 07:22:34;;;;;;;;;1.00;1.00;;;;;21.17;44.01;99042.35;112187;1260;20706;-35
2024/01/14 07:25:02;;;;;;;;;1.00;1.00;;;;;21.26;43.82;99048.38;112152;1260;18200;-36
2024/01/14 07:27:29;;;;;;;;;1.67;1.67;;;;;21.27;43.95;99044.54;112185;1260;18632;-36
2024/01/14 07:29:56;;;;;;;;;1.00;1.00;;;;;21.26;44.12;99042.29;112400;1244;20684;-38
2024/01/14 07:32:24;;;;;;;;;1.00;1.00;;;;;21.35;43.91;99046.13;112246;1247;19539;-36
2024/01/14 07:34:51;;;;;;;;;3.00;3.00;;;;;21.45;43.65;99044.11;112414;1260;18610;-36
2024/01/14 07:37:19;;;;;;;;;1.00;1.00;;;;;21.38;43.91;99044.73;112238;1244;22083;-37
2024/01/14 07:39:46;;;;;;;;;1.00;1.00;;;;;21.36;44.18;99052.83;112180;1260;18507;-38
2024/01/14 07:42:13;;;;;;;;;1.00;1.00;;;;;21.46;44.11;99057.87;112258;1260;20446;-37
2024/01/14 07:44:41;;;;;;;;;1.00;1.00;;;;;21.40;44.40;99063.16;112172;1254;19368;-36
2024/01/14 07:47:08;;;;;;;;;1.00;1.00;;;;;21.36;44.62;99066.41;112257;1260;18184;-36
2024/01/14 07:49:36;;;;;;;;;3.00;3.00;;;;;21.30;45.46;99067.88;112187;1244;18644;-39
2024/01/14 07:52:03;;;;;;;;;3.67;1.00;;;;;21.36;45.16;99071.05;112305;1246;20802;-36
2024/01/14 07:54:31;;;;;;;;;1.00;1.00;;;;;21.41;44.69;99072.91;112138;1254;19347;-36
2024/01/14 07:56:58;;;;;;;;;2.33;2.33;;;;;21.44;45.14;99070.83;112227;1254;21275;-38
2024/01/14 07:59:25;;;;;;;;;1.00;1.00;;;;;21.45;45.53;99077.12;112123;1261;19357;-36
2024/01/14 08:01:53;;;;;;;;;1.00;1.00;;;;;21.50;45.50;99075.03;112231;1261;19519;-35
2024/01/14 08:04:20;;;;;;;;;1.00;1.00;;;;;21.49;45.66;99073.95;112130;1262;21413;-36
2024/01/14 08:06:48;;;;;;;;;1.00;1.00;;;;;21.47;45.86;99071.23;112131;1246;20658;-37
2024/01/14 08:09:15;;;;;;;;;1.00;1.00;;;;;21.52;46.13;99069.36;112134;1261;18136;-36
2024/01/14 08:11:43;;;;;;;;;3.00;1.00;;;;;21.45;46.15;99072.86;112137;1261;21147;-35
2024/01/14 08:14:10;;;;;;;;;1.00;1.00;;;;;21.46;46.35;99073.50;112155;1247;21157;-35
2024/01/14 08:16:37;;;;;;;;;3.00;3.00;;;;;21.42;46.58;99079.11;112177;1248;20911;-35
2024/01/14 08:19:05;;;;;;;;;3.00;3.00;;;;;21.48;46.42;99076.48;112201;1247;20375;-35
2024/01/14 08:21:33;;;;;;;;;1.00;1.00;;;;;21.53;45.97;99079.61;112172;1261;19301;-38
2024/01/14 08:24:03;;;;;;;;;1.00;1.00;;;;;21.54;46.15;99081.70;112158;1262;19517;-39
2024/01/14 08:26:31;;;;;;;;;4.00;4.00;;;;;21.55;46.45;99087.67;112196;1261;18806;-36
2024/01/14 08:28:58;;;;;;;;;3.00;3.00;;;;;21.64;46.33;99087.96;112249;1261;21173;-36
2024/01/14 08:31:26;;;;;;;;;1.00;1.00;;;;;21.62;46.90;99085.90;112152;1248;19859;-35
2024/01/14 08:33:53;;;;;;;;;3.00;3.00;;;;;21.67;47.91;99092.62;112291;1246;19933;-38
2024/01/14 08:36:20;;;;;;;;;3.00;3.00;;;;;21.81;48.10;99091.79;112146;1254;19407;-36
2024/01/14 08:38:48;;;;;;;;;1.00;1.00;;;;;21.80;48.71;99093.52;112291;1246;19567;-36
2024/01/14 08:41:16;;;;;;;;;1.00;1.00;;;;;21.79;49.58;99098.67;112182;1262;20246;-37
2024/01/14 08:43:43;;;;;;;;;1.00;1.00;;;;;21.76;50.16;99104.15;112278;1261;19275;-37
2024/01/14 08:46:11;;;;;;;;;1.00;1.00;;;;;21.85;49.79;99106.70;112120;1261;18396;-37
2024/01/14 08:48:38;;;;;;;;;1.00;1.00;;;;;21.88;49.95;99115.28;112293;1246;20010;-36
2024/01/14 08:51:05;;;;;;;;;1.00;1.00;;;;;21.80;50.50;99117.27;112151;1260;19495;-37
2024/01/14 08:53:33;;;;;;;;;3.00;3.00;;;;;21.76;50.82;99119.22;112380;1244;18102;-36
2024/01/14 08:56:00;;;;;;;;;4.00;3.00;;;;;21.87;50.26;99121.82;112207;1244;18600;-33
2024/01/14 08:58:28;;;;;;;;;1.00;1.00;;;;;21.80;50.07;99120.10;112355;1246;21121;-37
2024/01/14 09:00:55;;;;;;;;;1.00;1.00;;;;;21.80;49.52;99122.44;112230;1244;19498;-38
2024/01/14 09:03:23;;;;;;;;;2.00;2.00;;;;;21.71;49.65;99120.80;112132;1260;21534;-38
2024/01/14 09:05:50;;;;;;;;;1.00;1.00;;;;;21.69;49.31;99122.73;112079;1254;21959;-36
2024/01/14 09:08:18;;;;;;;;;51.50;39.00;;;;;21.73;49.22;99126.52;112058;1244;19528;-37
2024/01/14 09:10:47;;;;;;;;;33.50;24.00;;;;;21.82;48.77;99127.80;112081;1260;20490;-37
2024/01/14 09:13:14;;;;;;;;;40.50;32.50;;;;;21.75;48.56;99127.27;112128;1244;20702;-37
2024/01/14 09:15:41;;;;;;;;;78.00;55.50;;;;;21.85;48.25;99129.92;112075;1244;21354;-36
2024/01/14 09:18:09;;;;;;;;;94.00;66.00;;;;;21.85;48.66;99133.36;112096;1260;20202;-38
2024/01/14 09:20:36;;;;;;;;;108.00;77.00;;;;;21.78;49.09;99133.69;112058;1260;20678;-40
2024/01/14 09:23:04;;;;;;;;;91.00;67.00;;;;;21.66;48.92;99136.85;112106;1260;18503;-38
2024/01/14 09:25:31;;;;;;;;;93.50;66.00;;;;;21.60;49.05;99132.15;112128;1244;19860;-41
2024/01/14 09:27:58;;;;;;;;;80.00;61.00;;;;;21.57;49.22;99130.98;112101;1260;20691;-39
2024/01/14 09:30:26;;;;;;;;;68.00;53.00;;;;;21.60;49.21;99132.70;112138;1244;19991;-39
2024/01/14 09:32:53;;;;;;;;;74.00;53.50;;;;;21.54;48.90;99130.65;112291;1260;18735;-40
2024/01/14 09:35:21;;;;;;;;;71.00;50.00;;;;;21.62;49.33;99127.19;112155;1247;20775;-36
2024/01/14 09:37:48;;;;;;;;;65.00;48.00;;;;;21.62;49.44;99128.24;112161;1244;20155;-40
2024/01/14 09:40:16;;;;;;;;;59.50;45.50;;;;;21.60;48.63;99126.61;112114;1260;20111;-36
2024/01/14 09:42:44;;;;;;;;;44.50;34.00;;;;;21.59;48.29;99128.27;112218;1253;19548;-39
2024/01/14 09:45:12;;;;;;;;;53.00;42.00;;;;;21.53;48.88;99128.50;112159;1244;20220;-37
2024/01/14 09:47:39;;;;;;;;;47.50;35.50;;;;;21.52;48.77;99125.31;112251;1260;20111;-37
2024/01/14 09:50:07;;;;;;;;;44.00;39.00;;;;;21.52;48.59;99121.61;112154;1260;19320;-38
2024/01/14 09:52:35;;;;;;;;;35.50;30.00;;;;;21.51;48.71;99117.27;112219;1244;19910;-36
2024/01/14 09:55:03;;;;;;;;;44.00;36.00;;;;;21.52;48.34;99114.90;112118;1261;18693;-36
2024/01/14 09:57:31;;;;;;;;;33.00;27.00;;;;;21.51;48.00;99113.40;112145;1246;19277;-37
2024/01/14 09:59:58;;;;;;;;;37.50;26.00;;;;;21.46;48.15;99117.26;112220;1261;18718;-38
2024/01/14 10:02:26;;;;;;;;;31.00;27.00;;;;;21.41;48.38;99116.52;112122;1262;19080;-40
2024/01/14 10:04:54;;;;;;;;;36.00;25.00;;;;;21.36;47.52;99115.77;112188;1245;19523;-40
2024/01/14 10:07:21;;;;;;;;;24.50;18.00;;;;;21.31;45.95;99113.17;112191;1261;20119;-37
2024/01/14 10:09:50;;;;;;;;;22.00;20.50;;;;;21.37;45.32;99112.98;112174;1246;20129;-36
2024/01/14 10:12:18;;;;;;;;;29.00;22.00;;;;;21.49;45.08;99109.38;112148;1246;20776;-36
2024/01/14 10:14:46;;;;;;;;;25.50;18.50;;;;;21.41;45.66;99107.42;112176;1247;19968;-35
2024/01/14 10:17:13;;;;;;;;;21.00;18.00;;;;;21.71;45.00;99112.82;112233;1261;20069;-37
2024/01/14 10:19:40;;;;;;;;;15.00;13.00;;;;;21.97;43.65;99115.79;112127;1246;20778;-38
2024/01/14 10:22:08;;;;;;;;;16.00;15.00;;;;;21.88;40.99;99111.38;112222;1247;18506;-36
2024/01/14 10:24:36;;;;;;;;;20.50;15.50;;;;;21.73;38.64;99111.81;112134;1246;20029;-39
2024/01/14 10:27:05;;;;;;;;;17.00;15.50;;;;;21.57;39.26;99118.03;112251;1247;21914;-37
2024/01/14 10:29:32;;;;;;;;;12.00;10.00;;;;;21.49;40.18;99120.98;112135;1262;21021;-38
2024/01/14 10:32:00;;;;;;;;;9.50;8.00;;;;;21.39;41.03;99120.33;112176;1261;20170;-36
2024/01/14 10:34:29;;;;;;;;;7.00;7.00;;;;;21.41;41.31;99114.28;112153;1246;21155;-39
2024/01/14 10:36:56;;;;;;;;;9.00;9.00;;;;;21.53;41.26;99113.40;112221;1261;19651;-36
2024/01/14 10:39:24;;;;;;;;;12.00;6.00;;;;;21.45;41.91;99112.47;112185;1262;20038;-37
2024/01/14 10:41:52;;;;;;;;;7.00;6.00;;;;;21.45;42.15;99111.92;112171;1246;20719;-37
2024/01/14 10:44:19;;;;;;;;;9.00;7.00;;;;;21.39;42.22;99107.26;112225;1246;18756;-36
2024/01/14 10:46:47;;;;;;;;;7.00;7.00;;;;;21.38;42.90;99102.54;112150;1262;20113;-37
2024/01/14 10:49:14;;;;;;;;;6.00;6.00;;;;;21.32;43.07;99099.98;112221;1246;21265;-36
2024/01/14 10:51:41;;;;;;;;;7.00;7.00;;;;;21.45;42.74;99098.21;112158;1260;19496;-38
2024/01/14 10:54:09;;;;;;;;;6.00;6.00;;;;;21.49;42.87;99093.19;112263;1245;20546;-36
2024/01/14 10:56:36;;;;;;;;;6.50;6.00;;;;;21.45;42.66;99097.66;112149;1261;19378;-37
2024/01/14 10:59:04;;;;;;;;;5.00;5.00;;;;;21.45;42.70;99094.83;112289;1246;19906;-39
2024/01/14 11:01:31;;;;;;;;;6.00;6.00;;;;;21.45;42.76;99096.13;112143;1261;20207;-35
2024/01/14 11:03:59;;;;;;;;;6.00;4.00;;;;;21.48;42.84;99094.95;112217;1246;22142;-39
2024/01/14 11:06:26;;;;;;;;;6.00;4.00;;;;;21.46;42.72;99094.69;112179;1247;19682;-36
2024/01/14 11:08:53;;;;;;;;;4.00;4.00;;;;;21.56;42.47;99105.37;112170;1246;20298;-36
2024/01/14 11:11:21;;;;;;;;;6.00;6.00;;;;;21.54;42.71;99100.02;112164;1246;19438;-35
2024/01/14 11:13:49;;;;;;;;;4.00;4.00;;;;;21.52;42.75;99099.52;112143;1248;18177;-37
2024/01/14 11:16:17;;;;;;;;;8.00;6.00;;;;;21.38;42.93;99090.65;112174;1261;18789;-35
2024/01/14 11:18:44;;;;;;;;;6.00;6.00;;;;;21.41;42.59;99086.59;112231;1261;20549;-36
2024/01/14 11:21:12;;;;;;;;;6.00;4.00;;;;;21.47;42.11;99089.05;112194;1247;19526;-37
2024/01/14 11:23:39;;;;;;;;;7.00;6.00;;;;;21.46;41.83;99089.56;112214;1261;19971;-36